sensor_id;sensor_type;location;lat;lon;timestamp;temperature;humidity
27266;DHT22;14766;51.380;13.762;2024-02-15T00:01:11;12.40;75.40
27266;DHT22;14766;51.380;13.762;2024-02-15T00:03:38;12.40;75.50
27266;DHT22;14766;51.380;13.762;2024-02-15T00:06:20;12.40;75.50
27266;DHT22;14766;51.380;13.762;2024-02-15T00:08:47;12.40;75.20
27266;DHT22;14766;51.380;13.762;2024-02-15T00:11:14;12.40;75.10
27266;DHT22;14766;51.380;13.762;2024-02-15T00:13:43;12.40;75.00
27266;DHT22;14766;51.380;13.762;2024-02-15T00:16:13;12.40;75.10
27266;DHT22;14766;51.380;13.762;2024-02-15T00:18:41;12.30;74.90
27266;DHT22;14766;51.380;13.762;2024-02-15T00:21:08;12.30;75.20
27266;DHT22;14766;51.380;13.762;2024-02-15T00:23:36;12.40;75.10
27266;DHT22;14766;51.380;13.762;2024-02-15T00:26:03;12.30;75.00
27266;DHT22;14766;51.380;13.762;2024-02-15T00:28:30;12.40;75.10
27266;DHT22;14766;51.380;13.762;2024-02-15T00:30:57;12.40;75.10
27266;DHT22;14766;51.380;13.762;2024-02-15T00:33:24;12.40;75.20
27266;DHT22;14766;51.380;13.762;2024-02-15T00:35:52;12.40;75.40
27266;DHT22;14766;51.380;13.762;2024-02-15T00:38:20;12.40;75.30
27266;DHT22;14766;51.380;13.762;2024-02-15T00:40:46;12.40;75.50
27266;DHT22;14766;51.380;13.762;2024-02-15T00:43:14;12.40;75.30
27266;DHT22;14766;51.380;13.762;2024-02-15T00:45:41;12.40;75.30
27266;DHT22;14766;51.380;13.762;2024-02-15T00:48:08;12.40;75.30
27266;DHT22;14766;51.380;13.762;2024-02-15T00:50:37;12.40;75.30
27266;DHT22;14766;51.380;13.762;2024-02-15T00:53:05;12.40;75.50
27266;DHT22;14766;51.380;13.762;2024-02-15T00:55:32;12.40;75.30
27266;DHT22;14766;51.380;13.762;2024-02-15T00:57:59;12.40;75.30
27266;DHT22;14766;51.380;13.762;2024-02-15T01:00:26;12.40;75.50
27266;DHT22;14766;51.380;13.762;2024-02-15T01:02:54;12.50;75.70
27266;DHT22;14766;51.380;13.762;2024-02-15T01:05:22;12.50;75.60
27266;DHT22;14766;51.380;13.762;2024-02-15T01:07:51;12.40;75.50
27266;DHT22;14766;51.380;13.762;2024-02-15T01:10:18;12.40;75.60
27266;DHT22;14766;51.380;13.762;2024-02-15T01:12:46;12.50;76.00
27266;DHT22;14766;51.380;13.762;2024-02-15T01:15:14;12.50;75.90
27266;DHT22;14766;51.380;13.762;2024-02-15T01:17:46;12.50;75.90
27266;DHT22;14766;51.380;13.762;2024-02-15T01:20:14;12.50;75.90
27266;DHT22;14766;51.380;13.762;2024-02-15T01:22:41;12.50;75.80
27266;DHT22;14766;51.380;13.762;2024-02-15T01:25:08;12.50;75.80
27266;DHT22;14766;51.380;13.762;2024-02-15T01:27:35;12.50;76.00
27266;DHT22;14766;51.380;13.762;2024-02-15T01:30:03;12.50;76.20
27266;DHT22;14766;51.380;13.762;2024-02-15T01:32:31;12.50;76.40
27266;DHT22;14766;51.380;13.762;2024-02-15T01:34:58;12.50;76.30
27266;DHT22;14766;51.380;13.762;2024-02-15T01:37:26;12.50;76.20
27266;DHT22;14766;51.380;13.762;2024-02-15T01:39:53;12.50;76.40
27266;DHT22;14766;51.380;13.762;2024-02-15T01:42:20;12.50;76.50
27266;DHT22;14766;51.380;13.762;2024-02-15T01:44:47;12.50;76.60
27266;DHT22;14766;51.380;13.762;2024-02-15T01:47:17;12.50;76.80
27266;DHT22;14766;51.380;13.762;2024-02-15T01:49:46;12.50;76.70
27266;DHT22;14766;51.380;13.762;2024-02-15T01:52:16;12.50;76.90
27266;DHT22;14766;51.380;13.762;2024-02-15T01:54:45;12.50;77.90
27266;DHT22;14766;51.380;13.762;2024-02-15T01:57:12;12.50;77.10
27266;DHT22;14766;51.380;13.762;2024-02-15T01:59:40;12.50;76.90
27266;DHT22;14766;51.380;13.762;2024-02-15T02:02:10;12.50;77.10
27266;DHT22;14766;51.380;13.762;2024-02-15T02:04:38;12.60;77.50
27266;DHT22;14766;51.380;13.762;2024-02-15T02:07:06;12.50;77.00
27266;DHT22;14766;51.380;13.762;2024-02-15T02:09:34;12.50;77.10
27266;DHT22;14766;51.380;13.762;2024-02-15T02:12:01;12.60;77.00
27266;DHT22;14766;51.380;13.762;2024-02-15T02:14:28;12.60;76.90
27266;DHT22;14766;51.380;13.762;2024-02-15T02:16:57;12.60;77.00
27266;DHT22;14766;51.380;13.762;2024-02-15T02:19:39;12.60;77.30
27266;DHT22;14766;51.380;13.762;2024-02-15T02:22:09;12.60;77.50
27266;DHT22;14766;51.380;13.762;2024-02-15T02:27:17;12.60;77.00
27266;DHT22;14766;51.380;13.762;2024-02-15T02:29:44;12.60;77.20
27266;DHT22;14766;51.380;13.762;2024-02-15T02:32:12;12.70;77.40
27266;DHT22;14766;51.380;13.762;2024-02-15T02:34:40;12.70;77.50
27266;DHT22;14766;51.380;13.762;2024-02-15T02:37:11;12.70;77.40
27266;DHT22;14766;51.380;13.762;2024-02-15T02:39:41;12.70;77.60
27266;DHT22;14766;51.380;13.762;2024-02-15T02:42:10;12.70;77.60
27266;DHT22;14766;51.380;13.762;2024-02-15T02:44:39;12.70;77.70
27266;DHT22;14766;51.380;13.762;2024-02-15T02:47:07;12.70;77.60
27266;DHT22;14766;51.380;13.762;2024-02-15T02:49:37;12.70;77.60
27266;DHT22;14766;51.380;13.762;2024-02-15T02:52:04;12.70;77.50
27266;DHT22;14766;51.380;13.762;2024-02-15T02:54:31;12.70;77.50
27266;DHT22;14766;51.380;13.762;2024-02-15T02:56:59;12.70;77.60
27266;DHT22;14766;51.380;13.762;2024-02-15T02:59:26;12.70;77.60
27266;DHT22;14766;51.380;13.762;2024-02-15T03:01:53;12.70;77.70
27266;DHT22;14766;51.380;13.762;2024-02-15T03:04:23;12.70;77.70
27266;DHT22;14766;51.380;13.762;2024-02-15T03:06:50;12.70;77.50
27266;DHT22;14766;51.380;13.762;2024-02-15T03:09:20;12.70;78.50
27266;DHT22;14766;51.380;13.762;2024-02-15T03:11:47;12.70;77.60
27266;DHT22;14766;51.380;13.762;2024-02-15T03:14:14;12.70;77.60
27266;DHT22;14766;51.380;13.762;2024-02-15T03:16:41;12.80;77.60
27266;DHT22;14766;51.380;13.762;2024-02-15T03:19:08;12.70;77.80
27266;DHT22;14766;51.380;13.762;2024-02-15T03:21:38;12.80;77.80
27266;DHT22;14766;51.380;13.762;2024-02-15T03:24:06;12.70;77.70
27266;DHT22;14766;51.380;13.762;2024-02-15T03:26:34;12.80;77.80
27266;DHT22;14766;51.380;13.762;2024-02-15T03:29:05;12.80;77.60
27266;DHT22;14766;51.380;13.762;2024-02-15T03:31:35;12.80;77.70
27266;DHT22;14766;51.380;13.762;2024-02-15T03:34:04;12.80;78.50
27266;DHT22;14766;51.380;13.762;2024-02-15T03:36:31;12.80;77.80
27266;DHT22;14766;51.380;13.762;2024-02-15T03:39:01;12.80;77.90
27266;DHT22;14766;51.380;13.762;2024-02-15T03:41:29;12.80;78.90
27266;DHT22;14766;51.380;13.762;2024-02-15T03:44:00;12.80;78.00
27266;DHT22;14766;51.380;13.762;2024-02-15T03:46:27;12.80;78.00
27266;DHT22;14766;51.380;13.762;2024-02-15T03:48:57;12.80;77.90
27266;DHT22;14766;51.380;13.762;2024-02-15T03:51:24;12.80;78.10
27266;DHT22;14766;51.380;13.762;2024-02-15T03:53:51;12.80;78.10
27266;DHT22;14766;51.380;13.762;2024-02-15T03:56:19;12.80;78.00
27266;DHT22;14766;51.380;13.762;2024-02-15T03:58:48;12.80;77.90
27266;DHT22;14766;51.380;13.762;2024-02-15T04:01:17;12.80;77.90
27266;DHT22;14766;51.380;13.762;2024-02-15T04:03:44;12.80;77.80
27266;DHT22;14766;51.380;13.762;2024-02-15T04:06:11;12.80;77.80
27266;DHT22;14766;51.380;13.762;2024-02-15T04:08:39;12.80;77.80
27266;DHT22;14766;51.380;13.762;2024-02-15T04:11:06;12.80;77.90
27266;DHT22;14766;51.380;13.762;2024-02-15T04:13:37;12.80;77.90
27266;DHT22;14766;51.380;13.762;2024-02-15T04:16:04;12.80;78.10
27266;DHT22;14766;51.380;13.762;2024-02-15T04:18:31;12.90;78.10
27266;DHT22;14766;51.380;13.762;2024-02-15T04:21:00;12.80;78.00
27266;DHT22;14766;51.380;13.762;2024-02-15T04:23:27;12.80;78.60
27266;DHT22;14766;51.380;13.762;2024-02-15T04:25:54;12.90;78.50
27266;DHT22;14766;51.380;13.762;2024-02-15T04:28:21;12.80;78.70
27266;DHT22;14766;51.380;13.762;2024-02-15T04:30:48;12.80;78.60
27266;DHT22;14766;51.380;13.762;2024-02-15T04:33:16;12.80;78.70
27266;DHT22;14766;51.380;13.762;2024-02-15T04:35:44;12.90;78.60
27266;DHT22;14766;51.380;13.762;2024-02-15T04:38:12;12.90;78.50
27266;DHT22;14766;51.380;13.762;2024-02-15T04:40:39;12.90;78.80
27266;DHT22;14766;51.380;13.762;2024-02-15T04:43:06;12.90;79.00
27266;DHT22;14766;51.380;13.762;2024-02-15T04:45:35;12.90;79.00
27266;DHT22;14766;51.380;13.762;2024-02-15T04:48:03;12.90;79.10
27266;DHT22;14766;51.380;13.762;2024-02-15T04:50:30;12.90;79.00
27266;DHT22;14766;51.380;13.762;2024-02-15T04:52:57;12.90;78.90
27266;DHT22;14766;51.380;13.762;2024-02-15T04:55:24;12.90;78.90
27266;DHT22;14766;51.380;13.762;2024-02-15T04:57:53;12.90;79.00
27266;DHT22;14766;51.380;13.762;2024-02-15T05:00:23;12.90;79.00
27266;DHT22;14766;51.380;13.762;2024-02-15T05:02:53;12.90;80.10
27266;DHT22;14766;51.380;13.762;2024-02-15T05:05:20;12.90;79.40
27266;DHT22;14766;51.380;13.762;2024-02-15T05:07:48;12.90;79.40
27266;DHT22;14766;51.380;13.762;2024-02-15T05:10:21;12.90;79.30
27266;DHT22;14766;51.380;13.762;2024-02-15T05:12:48;12.90;79.40
27266;DHT22;14766;51.380;13.762;2024-02-15T05:15:16;12.90;79.60
27266;DHT22;14766;51.380;13.762;2024-02-15T05:17:45;12.90;79.40
27266;DHT22;14766;51.380;13.762;2024-02-15T05:20:12;12.90;79.80
27266;DHT22;14766;51.380;13.762;2024-02-15T05:22:41;12.90;80.10
27266;DHT22;14766;51.380;13.762;2024-02-15T05:25:19;12.80;80.30
27266;DHT22;14766;51.380;13.762;2024-02-15T05:27:56;12.90;80.40
27266;DHT22;14766;51.380;13.762;2024-02-15T05:30:27;12.90;80.70
27266;DHT22;14766;51.380;13.762;2024-02-15T05:32:56;12.90;80.10
27266;DHT22;14766;51.380;13.762;2024-02-15T05:35:24;12.80;80.10
27266;DHT22;14766;51.380;13.762;2024-02-15T05:37:52;12.90;80.10
27266;DHT22;14766;51.380;13.762;2024-02-15T05:40:20;12.80;80.60
27266;DHT22;14766;51.380;13.762;2024-02-15T05:42:47;12.80;80.60
27266;DHT22;14766;51.380;13.762;2024-02-15T05:45:28;12.90;80.50
27266;DHT22;14766;51.380;13.762;2024-02-15T05:47:56;12.90;81.00
27266;DHT22;14766;51.380;13.762;2024-02-15T05:50:25;12.90;80.90
27266;DHT22;14766;51.380;13.762;2024-02-15T05:52:54;12.80;81.00
27266;DHT22;14766;51.380;13.762;2024-02-15T05:55:22;12.80;81.10
27266;DHT22;14766;51.380;13.762;2024-02-15T05:57:49;12.90;81.00
27266;DHT22;14766;51.380;13.762;2024-02-15T06:00:18;12.80;81.80
27266;DHT22;14766;51.380;13.762;2024-02-15T06:02:49;12.80;81.60
27266;DHT22;14766;51.380;13.762;2024-02-15T06:05:17;12.80;81.80
27266;DHT22;14766;51.380;13.762;2024-02-15T06:07:44;12.80;82.00
27266;DHT22;14766;51.380;13.762;2024-02-15T06:10:14;12.80;81.90
27266;DHT22;14766;51.380;13.762;2024-02-15T06:12:42;12.80;82.40
27266;DHT22;14766;51.380;13.762;2024-02-15T06:15:10;12.80;82.40
27266;DHT22;14766;51.380;13.762;2024-02-15T06:17:43;12.80;82.60
27266;DHT22;14766;51.380;13.762;2024-02-15T06:20:15;12.80;82.70
27266;DHT22;14766;51.380;13.762;2024-02-15T06:22:45;12.80;82.70
27266;DHT22;14766;51.380;13.762;2024-02-15T06:25:13;12.80;82.50
27266;DHT22;14766;51.380;13.762;2024-02-15T06:27:42;12.80;82.50
27266;DHT22;14766;51.380;13.762;2024-02-15T06:30:12;12.80;82.10
27266;DHT22;14766;51.380;13.762;2024-02-15T06:32:58;12.80;82.10
27266;DHT22;14766;51.380;13.762;2024-02-15T06:35:44;12.80;82.40
27266;DHT22;14766;51.380;13.762;2024-02-15T06:38:30;12.80;82.30
27266;DHT22;14766;51.380;13.762;2024-02-15T06:41:16;12.80;82.20
27266;DHT22;14766;51.380;13.762;2024-02-15T06:43:43;12.80;82.30
27266;DHT22;14766;51.380;13.762;2024-02-15T06:46:10;12.80;82.50
27266;DHT22;14766;51.380;13.762;2024-02-15T06:48:42;12.80;82.50
27266;DHT22;14766;51.380;13.762;2024-02-15T06:51:15;12.80;82.60
27266;DHT22;14766;51.380;13.762;2024-02-15T06:53:43;12.80;82.40
27266;DHT22;14766;51.380;13.762;2024-02-15T06:56:11;12.80;82.60
27266;DHT22;14766;51.380;13.762;2024-02-15T06:58:39;12.80;82.50
27266;DHT22;14766;51.380;13.762;2024-02-15T07:01:07;12.80;82.40
27266;DHT22;14766;51.380;13.762;2024-02-15T07:03:35;12.80;82.40
27266;DHT22;14766;51.380;13.762;2024-02-15T07:06:02;12.80;82.50
27266;DHT22;14766;51.380;13.762;2024-02-15T07:08:31;12.80;82.40
27266;DHT22;14766;51.380;13.762;2024-02-15T07:11:00;12.80;82.50
27266;DHT22;14766;51.380;13.762;2024-02-15T07:13:31;12.80;82.50
27266;DHT22;14766;51.380;13.762;2024-02-15T07:15:59;12.90;82.50
27266;DHT22;14766;51.380;13.762;2024-02-15T07:18:26;12.90;82.50
27266;DHT22;14766;51.380;13.762;2024-02-15T07:20:58;12.90;82.50
27266;DHT22;14766;51.380;13.762;2024-02-15T07:23:32;12.90;82.60
27266;DHT22;14766;51.380;13.762;2024-02-15T07:26:04;12.90;82.60
27266;DHT22;14766;51.380;13.762;2024-02-15T07:28:32;12.90;82.60
27266;DHT22;14766;51.380;13.762;2024-02-15T07:31:00;12.90;82.30
27266;DHT22;14766;51.380;13.762;2024-02-15T07:33:31;12.90;82.20
27266;DHT22;14766;51.380;13.762;2024-02-15T07:35:58;12.90;82.10
27266;DHT22;14766;51.380;13.762;2024-02-15T07:38:25;13.00;82.30
27266;DHT22;14766;51.380;13.762;2024-02-15T07:40:52;13.00;82.20
27266;DHT22;14766;51.380;13.762;2024-02-15T07:43:20;13.00;82.50
27266;DHT22;14766;51.380;13.762;2024-02-15T07:45:47;13.00;83.10
27266;DHT22;14766;51.380;13.762;2024-02-15T07:48:18;13.00;82.30
27266;DHT22;14766;51.380;13.762;2024-02-15T07:50:45;13.10;82.40
27266;DHT22;14766;51.380;13.762;2024-02-15T07:53:13;13.10;82.30
27266;DHT22;14766;51.380;13.762;2024-02-15T07:55:40;13.10;82.30
27266;DHT22;14766;51.380;13.762;2024-02-15T07:58:09;13.10;82.20
27266;DHT22;14766;51.380;13.762;2024-02-15T08:00:37;13.10;82.20
27266;DHT22;14766;51.380;13.762;2024-02-15T08:03:05;13.20;82.20
27266;DHT22;14766;51.380;13.762;2024-02-15T08:05:33;13.20;82.10
27266;DHT22;14766;51.380;13.762;2024-02-15T08:08:01;13.20;82.10
27266;DHT22;14766;51.380;13.762;2024-02-15T08:10:28;13.20;82.10
27266;DHT22;14766;51.380;13.762;2024-02-15T08:12:56;13.30;82.10
27266;DHT22;14766;51.380;13.762;2024-02-15T08:15:26;13.30;82.10
27266;DHT22;14766;51.380;13.762;2024-02-15T08:17:55;13.30;82.10
27266;DHT22;14766;51.380;13.762;2024-02-15T08:20:23;13.30;82.30
27266;DHT22;14766;51.380;13.762;2024-02-15T08:22:50;13.40;82.50
27266;DHT22;14766;51.380;13.762;2024-02-15T08:25:17;13.50;83.00
27266;DHT22;14766;51.380;13.762;2024-02-15T08:27:47;13.60;83.30
27266;DHT22;14766;51.380;13.762;2024-02-15T08:30:18;13.70;84.90
27266;DHT22;14766;51.380;13.762;2024-02-15T08:32:51;14.00;87.50
27266;DHT22;14766;51.380;13.762;2024-02-15T08:35:20;14.50;88.30
27266;DHT22;14766;51.380;13.762;2024-02-15T08:37:48;15.10;87.00
27266;DHT22;14766;51.380;13.762;2024-02-15T08:40:18;15.70;83.90
27266;DHT22;14766;51.380;13.762;2024-02-15T08:42:51;16.30;81.90
27266;DHT22;14766;51.380;13.762;2024-02-15T08:45:19;16.90;76.90
27266;DHT22;14766;51.380;13.762;2024-02-15T08:47:47;17.30;74.80
27266;DHT22;14766;51.380;13.762;2024-02-15T08:50:17;17.50;73.00
27266;DHT22;14766;51.380;13.762;2024-02-15T08:52:44;17.60;69.60
27266;DHT22;14766;51.380;13.762;2024-02-15T08:55:13;17.60;68.60
27266;DHT22;14766;51.380;13.762;2024-02-15T08:57:41;17.50;68.00
27266;DHT22;14766;51.380;13.762;2024-02-15T09:00:11;17.40;69.00
27266;DHT22;14766;51.380;13.762;2024-02-15T09:02:47;17.30;68.50
27266;DHT22;14766;51.380;13.762;2024-02-15T09:05:16;17.20;69.60
27266;DHT22;14766;51.380;13.762;2024-02-15T09:07:45;17.10;69.90
27266;DHT22;14766;51.380;13.762;2024-02-15T09:10:15;17.00;69.40
27266;DHT22;14766;51.380;13.762;2024-02-15T09:12:46;16.90;68.60
27266;DHT22;14766;51.380;13.762;2024-02-15T09:15:18;16.80;69.20
27266;DHT22;14766;51.380;13.762;2024-02-15T09:17:45;16.70;69.60
27266;DHT22;14766;51.380;13.762;2024-02-15T09:20:16;16.60;69.60
27266;DHT22;14766;51.380;13.762;2024-02-15T09:22:50;16.40;70.00
27266;DHT22;14766;51.380;13.762;2024-02-15T09:25:18;16.30;70.40
27266;DHT22;14766;51.380;13.762;2024-02-15T09:27:45;16.20;71.00
27266;DHT22;14766;51.380;13.762;2024-02-15T09:30:13;16.10;71.60
27266;DHT22;14766;51.380;13.762;2024-02-15T09:32:42;16.10;72.30
27266;DHT22;14766;51.380;13.762;2024-02-15T09:35:10;16.00;72.90
27266;DHT22;14766;51.380;13.762;2024-02-15T09:37:44;16.00;73.70
27266;DHT22;14766;51.380;13.762;2024-02-15T09:40:12;16.10;73.70
27266;DHT22;14766;51.380;13.762;2024-02-15T09:42:40;16.20;74.00
27266;DHT22;14766;51.380;13.762;2024-02-15T09:45:08;16.30;74.30
27266;DHT22;14766;51.380;13.762;2024-02-15T09:47:43;16.40;72.90
27266;DHT22;14766;51.380;13.762;2024-02-15T09:50:12;16.40;72.20
27266;DHT22;14766;51.380;13.762;2024-02-15T09:52:50;16.40;71.90
27266;DHT22;14766;51.380;13.762;2024-02-15T09:55:29;16.40;71.90
27266;DHT22;14766;51.380;13.762;2024-02-15T09:57:56;16.40;71.70
27266;DHT22;14766;51.380;13.762;2024-02-15T10:00:23;16.30;71.30
27266;DHT22;14766;51.380;13.762;2024-02-15T10:02:51;16.30;71.60
27266;DHT22;14766;51.380;13.762;2024-02-15T10:05:22;16.20;71.80
27266;DHT22;14766;51.380;13.762;2024-02-15T10:07:50;16.10;72.10
27266;DHT22;14766;51.380;13.762;2024-02-15T10:10:21;16.10;72.20
27266;DHT22;14766;51.380;13.762;2024-02-15T10:12:49;16.00;72.20
27266;DHT22;14766;51.380;13.762;2024-02-15T10:15:37;16.00;72.30
27266;DHT22;14766;51.380;13.762;2024-02-15T10:18:07;16.00;72.70
27266;DHT22;14766;51.380;13.762;2024-02-15T10:20:37;15.90;72.60
27266;DHT22;14766;51.380;13.762;2024-02-15T10:25:37;15.90;73.00
27266;DHT22;14766;51.380;13.762;2024-02-15T10:28:07;15.90;73.00
27266;DHT22;14766;51.380;13.762;2024-02-15T10:30:39;15.90;73.10
27266;DHT22;14766;51.380;13.762;2024-02-15T10:33:07;15.80;73.10
27266;DHT22;14766;51.380;13.762;2024-02-15T10:35:35;15.90;73.10
27266;DHT22;14766;51.380;13.762;2024-02-15T10:38:10;15.90;73.40
27266;DHT22;14766;51.380;13.762;2024-02-15T10:40:39;15.90;73.10
27266;DHT22;14766;51.380;13.762;2024-02-15T10:43:10;15.90;73.00
27266;DHT22;14766;51.380;13.762;2024-02-15T10:45:41;15.80;73.10
27266;DHT22;14766;51.380;13.762;2024-02-15T10:48:09;15.80;73.20
27266;DHT22;14766;51.380;13.762;2024-02-15T10:50:41;15.80;73.40
27266;DHT22;14766;51.380;13.762;2024-02-15T10:53:26;15.90;73.50
27266;DHT22;14766;51.380;13.762;2024-02-15T10:56:00;15.90;73.50
27266;DHT22;14766;51.380;13.762;2024-02-15T10:58:33;15.90;73.40
27266;DHT22;14766;51.380;13.762;2024-02-15T11:01:06;15.90;73.20
27266;DHT22;14766;51.380;13.762;2024-02-15T11:03:37;15.90;73.20
27266;DHT22;14766;51.380;13.762;2024-02-15T11:06:09;15.90;73.00
27266;DHT22;14766;51.380;13.762;2024-02-15T11:08:38;15.90;73.00
27266;DHT22;14766;51.380;13.762;2024-02-15T11:11:06;15.90;73.00
27266;DHT22;14766;51.380;13.762;2024-02-15T11:13:34;15.90;73.10
27266;DHT22;14766;51.380;13.762;2024-02-15T11:16:01;15.90;73.30
27266;DHT22;14766;51.380;13.762;2024-02-15T11:18:58;15.90;73.50
27266;DHT22;14766;51.380;13.762;2024-02-15T11:21:52;15.90;73.50
27266;DHT22;14766;51.380;13.762;2024-02-15T11:24:27;15.90;73.60
27266;DHT22;14766;51.380;13.762;2024-02-15T11:27:04;16.00;73.70
27266;DHT22;14766;51.380;13.762;2024-02-15T11:29:59;16.00;73.70
27266;DHT22;14766;51.380;13.762;2024-02-15T11:32:48;16.00;73.60
27266;DHT22;14766;51.380;13.762;2024-02-15T11:35:19;16.10;73.40
27266;DHT22;14766;51.380;13.762;2024-02-15T11:43:09;16.10;73.30
27266;DHT22;14766;51.380;13.762;2024-02-15T11:45:38;16.10;73.40
27266;DHT22;14766;51.380;13.762;2024-02-15T11:48:14;16.10;73.10
27266;DHT22;14766;51.380;13.762;2024-02-15T11:50:43;16.10;73.00
27266;DHT22;14766;51.380;13.762;2024-02-15T11:53:10;16.10;73.00
27266;DHT22;14766;51.380;13.762;2024-02-15T11:55:40;16.10;72.70
27266;DHT22;14766;51.380;13.762;2024-02-15T11:58:09;16.10;72.80
27266;DHT22;14766;51.380;13.762;2024-02-15T12:00:37;16.10;72.80
27266;DHT22;14766;51.380;13.762;2024-02-15T12:03:24;16.00;72.70
27266;DHT22;14766;51.380;13.762;2024-02-15T12:06:30;16.10;72.80
27266;DHT22;14766;51.380;13.762;2024-02-15T12:09:18;16.00;72.80
27266;DHT22;14766;51.380;13.762;2024-02-15T12:12:05;16.00;72.90
27266;DHT22;14766;51.380;13.762;2024-02-15T12:15:01;16.00;73.00
27266;DHT22;14766;51.380;13.762;2024-02-15T12:17:49;16.00;73.10
27266;DHT22;14766;51.380;13.762;2024-02-15T12:20:35;16.00;73.10
27266;DHT22;14766;51.380;13.762;2024-02-15T12:23:03;16.00;73.10
27266;DHT22;14766;51.380;13.762;2024-02-15T12:25:34;16.10;73.30
27266;DHT22;14766;51.380;13.762;2024-02-15T12:28:03;16.10;73.60
27266;DHT22;14766;51.380;13.762;2024-02-15T12:30:33;16.10;73.80
27266;DHT22;14766;51.380;13.762;2024-02-15T12:33:12;16.20;73.40
27266;DHT22;14766;51.380;13.762;2024-02-15T12:35:40;16.30;73.30
27266;DHT22;14766;51.380;13.762;2024-02-15T12:38:09;16.40;73.40
27266;DHT22;14766;51.380;13.762;2024-02-15T12:40:39;16.50;72.40
27266;DHT22;14766;51.380;13.762;2024-02-15T12:43:11;16.50;72.10
27266;DHT22;14766;51.380;13.762;2024-02-15T12:45:40;16.50;71.20
27266;DHT22;14766;51.380;13.762;2024-02-15T12:48:08;16.50;71.20
27266;DHT22;14766;51.380;13.762;2024-02-15T12:50:36;16.50;70.90
27266;DHT22;14766;51.380;13.762;2024-02-15T12:53:04;16.60;70.70
27266;DHT22;14766;51.380;13.762;2024-02-15T12:55:34;16.60;70.90
27266;DHT22;14766;51.380;13.762;2024-02-15T12:58:04;16.60;70.70
27266;DHT22;14766;51.380;13.762;2024-02-15T13:00:36;16.60;70.60
27266;DHT22;14766;51.380;13.762;2024-02-15T13:03:08;16.60;70.50
27266;DHT22;14766;51.380;13.762;2024-02-15T13:05:39;16.60;70.70
27266;DHT22;14766;51.380;13.762;2024-02-15T13:08:07;16.60;70.60
27266;DHT22;14766;51.380;13.762;2024-02-15T13:10:42;16.60;70.70
27266;DHT22;14766;51.380;13.762;2024-02-15T13:13:10;16.60;70.40
27266;DHT22;14766;51.380;13.762;2024-02-15T13:15:37;16.60;70.40
27266;DHT22;14766;51.380;13.762;2024-02-15T13:18:06;16.60;70.60
27266;DHT22;14766;51.380;13.762;2024-02-15T13:20:37;16.60;70.30
27266;DHT22;14766;51.380;13.762;2024-02-15T13:23:07;16.50;70.40
27266;DHT22;14766;51.380;13.762;2024-02-15T13:25:42;16.60;70.70
27266;DHT22;14766;51.380;13.762;2024-02-15T13:28:13;16.50;70.70
27266;DHT22;14766;51.380;13.762;2024-02-15T13:30:41;16.50;70.80
27266;DHT22;14766;51.380;13.762;2024-02-15T13:33:12;16.50;70.90
27266;DHT22;14766;51.380;13.762;2024-02-15T13:35:44;16.50;70.90
27266;DHT22;14766;51.380;13.762;2024-02-15T13:38:11;16.50;71.00
27266;DHT22;14766;51.380;13.762;2024-02-15T13:40:42;16.40;71.10
27266;DHT22;14766;51.380;13.762;2024-02-15T13:43:12;16.40;71.20
27266;DHT22;14766;51.380;13.762;2024-02-15T13:45:40;16.40;71.40
27266;DHT22;14766;51.380;13.762;2024-02-15T13:48:08;16.40;71.50
27266;DHT22;14766;51.380;13.762;2024-02-15T13:50:37;16.40;71.40
27266;DHT22;14766;51.380;13.762;2024-02-15T13:53:06;16.40;71.50
27266;DHT22;14766;51.380;13.762;2024-02-15T13:55:37;16.40;71.60
27266;DHT22;14766;51.380;13.762;2024-02-15T13:58:05;16.40;71.40
27266;DHT22;14766;51.380;13.762;2024-02-15T14:00:35;16.40;71.40
27266;DHT22;14766;51.380;13.762;2024-02-15T14:03:04;16.40;71.40
27266;DHT22;14766;51.380;13.762;2024-02-15T14:05:34;16.40;71.40
27266;DHT22;14766;51.380;13.762;2024-02-15T14:08:03;16.40;71.30
27266;DHT22;14766;51.380;13.762;2024-02-15T14:10:33;16.40;71.30
27266;DHT22;14766;51.380;13.762;2024-02-15T14:13:04;16.40;71.30
27266;DHT22;14766;51.380;13.762;2024-02-15T14:15:35;16.40;71.30
27266;DHT22;14766;51.380;13.762;2024-02-15T14:18:11;16.40;71.40
27266;DHT22;14766;51.380;13.762;2024-02-15T14:20:42;16.50;71.50
27266;DHT22;14766;51.380;13.762;2024-02-15T14:23:11;16.40;71.40
27266;DHT22;14766;51.380;13.762;2024-02-15T14:25:43;16.50;71.40
27266;DHT22;14766;51.380;13.762;2024-02-15T14:28:12;16.50;71.30
27266;DHT22;14766;51.380;13.762;2024-02-15T14:30:40;16.50;71.30
27266;DHT22;14766;51.380;13.762;2024-02-15T14:33:25;16.50;71.00
27266;DHT22;14766;51.380;13.762;2024-02-15T14:36:00;16.50;71.00
27266;DHT22;14766;51.380;13.762;2024-02-15T14:38:28;16.50;71.00
27266;DHT22;14766;51.380;13.762;2024-02-15T14:40:56;16.50;70.80
27266;DHT22;14766;51.380;13.762;2024-02-15T14:43:27;16.60;70.90
27266;DHT22;14766;51.380;13.762;2024-02-15T14:45:56;16.60;70.80
27266;DHT22;14766;51.380;13.762;2024-02-15T14:48:24;16.50;70.70
27266;DHT22;14766;51.380;13.762;2024-02-15T14:50:53;16.60;70.70
27266;DHT22;14766;51.380;13.762;2024-02-15T14:53:20;16.60;70.40
27266;DHT22;14766;51.380;13.762;2024-02-15T14:55:48;16.50;70.40
27266;DHT22;14766;51.380;13.762;2024-02-15T14:58:17;16.60;70.60
27266;DHT22;14766;51.380;13.762;2024-02-15T15:00:45;16.60;70.70
27266;DHT22;14766;51.380;13.762;2024-02-15T15:03:15;16.60;70.60
27266;DHT22;14766;51.380;13.762;2024-02-15T15:05:43;16.60;70.70
27266;DHT22;14766;51.380;13.762;2024-02-15T15:08:30;16.60;70.70
27266;DHT22;14766;51.380;13.762;2024-02-15T15:11:15;16.60;70.70
27266;DHT22;14766;51.380;13.762;2024-02-15T15:14:01;16.50;70.80
27266;DHT22;14766;51.380;13.762;2024-02-15T15:16:33;16.50;70.80
27266;DHT22;14766;51.380;13.762;2024-02-15T15:19:02;16.50;70.80
27266;DHT22;14766;51.380;13.762;2024-02-15T15:21:30;16.50;70.90
27266;DHT22;14766;51.380;13.762;2024-02-15T15:23:58;16.50;71.00
27266;DHT22;14766;51.380;13.762;2024-02-15T15:26:25;16.50;71.00
27266;DHT22;14766;51.380;13.762;2024-02-15T15:28:53;16.50;71.10
27266;DHT22;14766;51.380;13.762;2024-02-15T15:31:24;16.40;71.10
27266;DHT22;14766;51.380;13.762;2024-02-15T15:33:53;16.40;71.10
27266;DHT22;14766;51.380;13.762;2024-02-15T15:36:23;16.40;71.20
27266;DHT22;14766;51.380;13.762;2024-02-15T15:38:50;16.40;71.30
27266;DHT22;14766;51.380;13.762;2024-02-15T15:41:17;16.40;71.40
27266;DHT22;14766;51.380;13.762;2024-02-15T15:43:45;16.30;71.50